Startpagina
METAR-TAF:

METAR-TAF

Vliegvelden :

Tirupati, India

breedte: 13-38-16N, lengte: 79-32-50E, hoogte: 107 m

Actueel weer

Dit bericht is 28 minuten geleden gemaakt, om 04:30 UTC
Wind 8 kt uit het noordoosten
Temperatuur 26°C
Vochtigheid 74%
Druk 1016 hPa
Zicht: 5000 m
Verspreide wolken op 2000 ft
Heiigheid

METAR: VOTP 140430Z 05008KT 5000 HZ SCT020 26/21 Q1016

Tijdstip: 10:28 (04:58 UTC)


TAF: ontbreekt

Waarnemingen en weersverwachtingen van meer dan 4000 vliegvelden (METAR en TAF).

De beschikbare stations zijn de gele en rode punten op de kaart.

Ga met uw muis naar het station om de naam te zien.

Klik dan om waarnemingen en weersverwachtingen te zien.

kaart wijzigen: klik op de groene knoppen met een zwart kruis om in te zoomen, op de groene knop met een streepje om uit te zoomen of op de groene pijlen voor aangrenzende kaarten.


METAR-TAF: